sensor_id;sensor_type;location;lat;lon;timestamp;pressure;altitude;pressure_sealevel;temperature;humidity
48774;BME280;34576;0.000;0.000;2023-04-08T00:03:14;96914.97;;;14.81;54.26
48774;BME280;34576;0.000;0.000;2023-04-08T00:10:15;96915.25;;;14.84;54.28
48774;BME280;34576;0.000;0.000;2023-04-08T00:17:15;96910.97;;;14.78;54.35
48774;BME280;34576;0.000;0.000;2023-04-08T00:24:16;96911.75;;;14.79;54.37
48774;BME280;34576;0.000;0.000;2023-04-08T00:31:16;96910.19;;;14.78;54.12
48774;BME280;34576;0.000;0.000;2023-04-08T00:38:16;96906.97;;;14.76;54.07
48774;BME280;34576;0.000;0.000;2023-04-08T00:45:17;96906.97;;;14.76;54.05
48774;BME280;34576;0.000;0.000;2023-04-08T00:52:17;96910.97;;;14.78;54.55
48774;BME280;34576;0.000;0.000;2023-04-08T00:59:17;96910.66;;;14.75;54.23
48774;BME280;34576;0.000;0.000;2023-04-08T01:06:28;96917.56;;;14.76;54.00
48774;BME280;34576;0.000;0.000;2023-04-08T01:13:32;96905.59;;;14.73;54.08
48774;BME280;34576;0.000;0.000;2023-04-08T01:20:35;96904.03;;;14.72;54.48
48774;BME280;34576;0.000;0.000;2023-04-08T01:27:35;96907.75;;;14.76;53.90
48774;BME280;34576;0.000;0.000;2023-04-08T01:34:36;96895.84;;;14.74;54.39
48774;BME280;34576;0.000;0.000;2023-04-08T01:41:37;96904.03;;;14.72;54.18
48774;BME280;34576;0.000;0.000;2023-04-08T01:48:38;96905.31;;;14.70;54.38
48774;BME280;34576;0.000;0.000;2023-04-08T01:55:39;96901.06;;;14.69;54.15
48774;BME280;34576;0.000;0.000;2023-04-08T02:02:41;96906.84;;;14.65;54.37
48774;BME280;34576;0.000;0.000;2023-04-08T02:09:42;96910.28;;;14.66;54.50
48774;BME280;34576;0.000;0.000;2023-04-08T02:16:44;96916.63;;;14.65;54.24
48774;BME280;34576;0.000;0.000;2023-04-08T02:23:48;96918.72;;;14.63;54.38
48774;BME280;34576;0.000;0.000;2023-04-08T02:30:50;96916.31;;;14.61;54.37
48774;BME280;34576;0.000;0.000;2023-04-08T02:37:51;96922.41;;;14.62;54.10
48774;BME280;34576;0.000;0.000;2023-04-08T02:44:51;96915.31;;;14.62;54.59
48774;BME280;34576;0.000;0.000;2023-04-08T02:51:52;96911.84;;;14.62;54.07
48774;BME280;34576;0.000;0.000;2023-04-08T02:58:52;96910.69;;;14.58;54.23
48774;BME280;34576;0.000;0.000;2023-04-08T03:05:52;96916.22;;;14.56;54.54
48774;BME280;34576;0.000;0.000;2023-04-08T03:12:53;96917.59;;;14.59;54.63
48774;BME280;34576;0.000;0.000;2023-04-08T03:19:53;96915.50;;;14.61;54.60
48774;BME280;34576;0.000;0.000;2023-04-08T03:26:53;96920.75;;;14.56;54.39
48774;BME280;34576;0.000;0.000;2023-04-08T03:33:54;96919.13;;;14.55;54.51
48774;BME280;34576;0.000;0.000;2023-04-08T03:40:54;96918.88;;;14.56;54.49
48774;BME280;34576;0.000;0.000;2023-04-08T03:47:54;96917.78;;;14.52;54.58
48774;BME280;34576;0.000;0.000;2023-04-08T03:54:55;96916.47;;;14.55;54.23
48774;BME280;34576;0.000;0.000;2023-04-08T04:01:55;96909.13;;;14.57;54.10
48774;BME280;34576;0.000;0.000;2023-04-08T04:08:56;96916.44;;;14.49;54.80
48774;BME280;34576;0.000;0.000;2023-04-08T04:15:56;96914.41;;;14.57;54.13
48774;BME280;34576;0.000;0.000;2023-04-08T04:22:56;96913.78;;;14.49;54.54
48774;BME280;34576;0.000;0.000;2023-04-08T04:29:56;96919.63;;;14.52;54.32
48774;BME280;34576;0.000;0.000;2023-04-08T04:36:57;96922.59;;;14.55;54.08
48774;BME280;34576;0.000;0.000;2023-04-08T04:43:57;96924.13;;;14.51;54.50
48774;BME280;34576;0.000;0.000;2023-04-08T04:50:58;96931.00;;;14.52;54.37
48774;BME280;34576;0.000;0.000;2023-04-08T04:57:58;96942.34;;;14.47;54.29
48774;BME280;34576;0.000;0.000;2023-04-08T05:04:59;96949.78;;;14.50;54.21
48774;BME280;34576;0.000;0.000;2023-04-08T05:11:59;96943.44;;;14.52;54.09
48774;BME280;34576;0.000;0.000;2023-04-08T05:18:59;96960.31;;;14.45;54.30
48774;BME280;34576;0.000;0.000;2023-04-08T05:26:00;96973.06;;;14.48;54.46
48774;BME280;34576;0.000;0.000;2023-04-08T05:33:00;96963.03;;;14.50;54.22
48774;BME280;34576;0.000;0.000;2023-04-08T05:40:00;96952.38;;;14.45;54.50
48774;BME280;34576;0.000;0.000;2023-04-08T05:47:01;96967.19;;;14.46;54.24
48774;BME280;34576;0.000;0.000;2023-04-08T05:54:01;96970.09;;;14.45;54.57
48774;BME280;34576;0.000;0.000;2023-04-08T06:01:01;96978.13;;;14.50;54.44
48774;BME280;34576;0.000;0.000;2023-04-08T06:08:02;96991.59;;;14.48;54.60
48774;BME280;34576;0.000;0.000;2023-04-08T06:15:03;96995.28;;;14.47;54.54
48774;BME280;34576;0.000;0.000;2023-04-08T06:22:03;96993.22;;;14.49;54.04
48774;BME280;34576;0.000;0.000;2023-04-08T06:29:04;97005.38;;;14.50;54.30
48774;BME280;34576;0.000;0.000;2023-04-08T06:36:04;96993.22;;;14.49;54.60
48774;BME280;34576;0.000;0.000;2023-04-08T06:43:05;96998.97;;;14.46;54.46
48774;BME280;34576;0.000;0.000;2023-04-08T06:50:12;97008.28;;;14.49;53.98
48774;BME280;34576;0.000;0.000;2023-04-08T06:57:12;97009.88;;;14.50;54.34
48774;BME280;34576;0.000;0.000;2023-04-08T07:04:13;97016.78;;;14.51;54.08
48774;BME280;34576;0.000;0.000;2023-04-08T07:11:13;97022.38;;;14.55;54.17
48774;BME280;34576;0.000;0.000;2023-04-08T07:18:13;97021.09;;;14.57;54.36
48774;BME280;34576;0.000;0.000;2023-04-08T07:25:14;97029.81;;;14.58;54.05
48774;BME280;34576;0.000;0.000;2023-04-08T07:32:15;97042.03;;;14.59;54.33
48774;BME280;34576;0.000;0.000;2023-04-08T07:39:15;97036.19;;;14.57;54.03
48774;BME280;34576;0.000;0.000;2023-04-08T07:46:15;97038.84;;;14.57;54.46
48774;BME280;34576;0.000;0.000;2023-04-08T07:53:16;97032.47;;;14.58;54.15
48774;BME280;34576;0.000;0.000;2023-04-08T08:00:16;97028.78;;;14.59;53.97
48774;BME280;34576;0.000;0.000;2023-04-08T08:07:20;97038.25;;;14.55;54.35
48774;BME280;34576;0.000;0.000;2023-04-08T08:14:20;97041.47;;;14.57;54.33
48774;BME280;34576;0.000;0.000;2023-04-08T08:21:21;97038.25;;;14.55;54.25
48774;BME280;34576;0.000;0.000;2023-04-08T08:28:21;97048.59;;;14.56;54.47
48774;BME280;34576;0.000;0.000;2023-04-08T08:35:21;97055.75;;;14.56;54.41
48774;BME280;34576;0.000;0.000;2023-04-08T08:42:22;97059.53;;;14.60;54.42
48774;BME280;34576;0.000;0.000;2023-04-08T08:49:23;97060.56;;;14.59;54.46
48774;BME280;34576;0.000;0.000;2023-04-08T08:56:23;97057.38;;;14.57;54.45
48774;BME280;34576;0.000;0.000;2023-04-08T09:03:24;97068.50;;;14.59;54.38
48774;BME280;34576;0.000;0.000;2023-04-08T09:10:27;97070.84;;;14.55;54.38
48774;BME280;34576;0.000;0.000;2023-04-08T09:17:31;97077.41;;;14.53;54.25
48774;BME280;34576;0.000;0.000;2023-04-08T09:24:32;97073.25;;;14.57;54.21
48774;BME280;34576;0.000;0.000;2023-04-08T09:31:36;97076.69;;;14.57;54.24
48774;BME280;34576;0.000;0.000;2023-04-08T09:38:40;97086.50;;;14.57;54.66
48774;BME280;34576;0.000;0.000;2023-04-08T09:45:41;97075.31;;;14.55;54.34
48774;BME280;34576;0.000;0.000;2023-04-08T09:52:43;97084.31;;;14.54;54.27
48774;BME280;34576;0.000;0.000;2023-04-08T09:59:44;97080.31;;;14.51;54.51
48774;BME280;34576;0.000;0.000;2023-04-08T10:06:52;97075.81;;;14.52;54.81
48774;BME280;34576;0.000;0.000;2023-04-08T10:13:53;97086.41;;;14.52;54.70
48774;BME280;34576;0.000;0.000;2023-04-08T10:20:53;97088.00;;;14.53;54.78
48774;BME280;34576;0.000;0.000;2023-04-08T10:27:53;97081.09;;;14.52;54.45
48774;BME280;34576;0.000;0.000;2023-04-08T10:34:54;97082.13;;;14.50;54.68
48774;BME280;34576;0.000;0.000;2023-04-08T10:41:54;97084.78;;;14.50;54.80
48774;BME280;34576;0.000;0.000;2023-04-08T10:49:01;97079.50;;;14.50;54.95
48774;BME280;34576;0.000;0.000;2023-04-08T11:03:09;97076.31;;;14.48;54.71
48774;BME280;34576;0.000;0.000;2023-04-08T11:10:10;97082.97;;;14.51;54.37
48774;BME280;34576;0.000;0.000;2023-04-08T11:17:13;97078.16;;;14.48;54.95
48774;BME280;34576;0.000;0.000;2023-04-08T11:24:13;97081.59;;;14.48;54.94
48774;BME280;34576;0.000;0.000;2023-04-08T11:31:15;97078.38;;;14.46;54.55
48774;BME280;34576;0.000;0.000;2023-04-08T11:38:16;97071.25;;;14.47;54.47
48774;BME280;34576;0.000;0.000;2023-04-08T11:45:17;97072.53;;;14.44;54.82
48774;BME280;34576;0.000;0.000;2023-04-08T11:52:18;97066.44;;;14.44;54.88
48774;BME280;34576;0.000;0.000;2023-04-08T11:59:18;97068.28;;;14.43;54.82
48774;BME280;34576;0.000;0.000;2023-04-08T12:06:19;97064.25;;;14.41;54.69
48774;BME280;34576;0.000;0.000;2023-04-08T12:13:19;97060.56;;;14.42;54.68
48774;BME280;34576;0.000;0.000;2023-04-08T12:20:19;97064.25;;;14.41;55.18
48774;BME280;34576;0.000;0.000;2023-04-08T12:27:20;97062.69;;;14.40;55.08
48774;BME280;34576;0.000;0.000;2023-04-08T12:34:20;97055.78;;;14.39;54.80
48774;BME280;34576;0.000;0.000;2023-04-08T12:41:21;97055.53;;;14.40;55.18
48774;BME280;34576;0.000;0.000;2023-04-08T12:48:22;97052.63;;;14.42;54.68
48774;BME280;34576;0.000;0.000;2023-04-08T12:55:22;97052.38;;;14.43;54.82
48774;BME280;34576;0.000;0.000;2023-04-08T13:02:24;97047.34;;;14.42;54.98
48774;BME280;34576;0.000;0.000;2023-04-08T13:09:27;97055.84;;;14.44;54.59
48774;BME280;34576;0.000;0.000;2023-04-08T13:16:29;97053.22;;;14.44;54.76
48774;BME280;34576;0.000;0.000;2023-04-08T13:23:29;97049.19;;;14.41;54.99
48774;BME280;34576;0.000;0.000;2023-04-08T13:30:29;97050.00;;;14.42;54.77
48774;BME280;34576;0.000;0.000;2023-04-08T13:37:30;97047.03;;;14.38;55.33
48774;BME280;34576;0.000;0.000;2023-04-08T13:44:30;97051.03;;;14.41;55.31
48774;BME280;34576;0.000;0.000;2023-04-08T13:51:32;97052.88;;;14.40;55.12
48774;BME280;34576;0.000;0.000;2023-04-08T13:58:32;97059.22;;;14.39;55.22
48774;BME280;34576;0.000;0.000;2023-04-08T14:05:32;97057.38;;;14.40;55.35
48774;BME280;34576;0.000;0.000;2023-04-08T14:12:33;97053.91;;;14.39;54.89
48774;BME280;34576;0.000;0.000;2023-04-08T14:19:33;97047.59;;;14.40;54.75
48774;BME280;34576;0.000;0.000;2023-04-08T14:26:34;97050.97;;;14.36;55.12
48774;BME280;34576;0.000;0.000;2023-04-08T14:33:35;97047.84;;;14.39;55.22
48774;BME280;34576;0.000;0.000;2023-04-08T14:40:35;97053.84;;;14.34;55.00
48774;BME280;34576;0.000;0.000;2023-04-08T14:47:36;97053.38;;;14.37;55.27
48774;BME280;34576;0.000;0.000;2023-04-08T14:54:36;97058.41;;;14.39;55.09
48774;BME280;34576;0.000;0.000;2023-04-08T15:01:36;97060.03;;;14.40;54.78
48774;BME280;34576;0.000;0.000;2023-04-08T15:08:37;97050.97;;;14.36;55.08
48774;BME280;34576;0.000;0.000;2023-04-08T15:15:37;97056.00;;;14.37;55.12
48774;BME280;34576;0.000;0.000;2023-04-08T15:22:38;97073.25;;;14.40;55.11
48774;BME280;34576;0.000;0.000;2023-04-08T15:29:38;97067.63;;;14.36;55.04
48774;BME280;34576;0.000;0.000;2023-04-08T15:36:38;97074.53;;;14.37;54.92
48774;BME280;34576;0.000;0.000;2023-04-08T15:43:39;97065.00;;;14.36;55.13
48774;BME280;34576;0.000;0.000;2023-04-08T15:50:39;97068.47;;;14.37;55.25
48774;BME280;34576;0.000;0.000;2023-04-08T15:57:40;97066.06;;;14.35;55.06
48774;BME280;34576;0.000;0.000;2023-04-08T16:04:40;97081.69;;;14.37;55.17
48774;BME280;34576;0.000;0.000;2023-04-08T16:11:41;97080.31;;;14.34;55.20
48774;BME280;34576;0.000;0.000;2023-04-08T16:18:42;97076.41;;;14.37;55.43
48774;BME280;34576;0.000;0.000;2023-04-08T16:25:43;97070.28;;;14.36;55.05
48774;BME280;34576;0.000;0.000;2023-04-08T16:32:43;97075.81;;;14.35;55.00
48774;BME280;34576;0.000;0.000;2023-04-08T16:39:44;97078.22;;;14.36;55.36
48774;BME280;34576;0.000;0.000;2023-04-08T16:46:45;97087.00;;;14.37;54.79
48774;BME280;34576;0.000;0.000;2023-04-08T16:53:46;97086.16;;;14.36;55.12
48774;BME280;34576;0.000;0.000;2023-04-08T17:00:46;97088.03;;;14.36;55.16
48774;BME280;34576;0.000;0.000;2023-04-08T17:07:46;97098.38;;;14.37;54.76
48774;BME280;34576;0.000;0.000;2023-04-08T17:14:47;97103.41;;;14.39;54.92
48774;BME280;34576;0.000;0.000;2023-04-08T17:21:47;97098.38;;;14.37;54.67
48774;BME280;34576;0.000;0.000;2023-04-08T17:28:47;97102.63;;;14.38;55.03
48774;BME280;34576;0.000;0.000;2023-04-08T17:35:48;97103.16;;;14.40;54.84
48774;BME280;34576;0.000;0.000;2023-04-08T17:42:48;97107.91;;;14.38;54.94
48774;BME280;34576;0.000;0.000;2023-04-08T17:49:49;97113.44;;;14.37;55.08
48774;BME280;34576;0.000;0.000;2023-04-08T17:56:52;97128.50;;;14.36;54.99
48774;BME280;34576;0.000;0.000;2023-04-08T18:03:53;97134.88;;;14.35;54.63
48774;BME280;34576;0.000;0.000;2023-04-08T18:10:53;97138.22;;;14.30;54.94
48774;BME280;34576;0.000;0.000;2023-04-08T18:17:53;97144.31;;;14.31;54.66
48774;BME280;34576;0.000;0.000;2023-04-08T18:24:54;97144.88;;;14.33;54.95
48774;BME280;34576;0.000;0.000;2023-04-08T18:31:55;97161.34;;;14.35;54.40
48774;BME280;34576;0.000;0.000;2023-04-08T18:38:55;97166.28;;;14.31;54.45
48774;BME280;34576;0.000;0.000;2023-04-08T18:45:56;97169.47;;;14.33;54.72
48774;BME280;34576;0.000;0.000;2023-04-08T18:52:56;97186.19;;;14.34;54.60
48774;BME280;34576;0.000;0.000;2023-04-08T18:59:57;97188.84;;;14.34;54.53
48774;BME280;34576;0.000;0.000;2023-04-08T19:06:57;97195.16;;;14.33;54.70
48774;BME280;34576;0.000;0.000;2023-04-08T19:13:57;97193.53;;;14.32;54.46
48774;BME280;34576;0.000;0.000;2023-04-08T19:20:59;97192.50;;;14.33;54.44
48774;BME280;34576;0.000;0.000;2023-04-08T19:27:59;97204.13;;;14.32;54.51
48774;BME280;34576;0.000;0.000;2023-04-08T19:35:00;97195.63;;;14.30;54.74
48774;BME280;34576;0.000;0.000;2023-04-08T19:42:00;97200.69;;;14.31;54.71
48774;BME280;34576;0.000;0.000;2023-04-08T19:49:00;97208.63;;;14.31;54.59
48774;BME280;34576;0.000;0.000;2023-04-08T19:56:01;97210.47;;;14.31;54.61
48774;BME280;34576;0.000;0.000;2023-04-08T20:03:01;97208.28;;;14.28;54.63
48774;BME280;34576;0.000;0.000;2023-04-08T20:10:02;97215.19;;;14.29;54.60
48774;BME280;34576;0.000;0.000;2023-04-08T20:17:02;97212.22;;;14.25;54.93
48774;BME280;34576;0.000;0.000;2023-04-08T20:24:03;97206.69;;;14.27;54.38
48774;BME280;34576;0.000;0.000;2023-04-08T20:31:03;97205.88;;;14.26;54.82
48774;BME280;34576;0.000;0.000;2023-04-08T20:38:04;97198.41;;;14.23;54.88
48774;BME280;34576;0.000;0.000;2023-04-08T20:45:05;97201.91;;;14.24;54.34
48774;BME280;34576;0.000;0.000;2023-04-08T20:52:05;97208.75;;;14.25;54.33
48774;BME280;34576;0.000;0.000;2023-04-08T20:59:06;97215.91;;;14.24;54.77
48774;BME280;34576;0.000;0.000;2023-04-08T21:06:06;97210.88;;;14.23;54.30
48774;BME280;34576;0.000;0.000;2023-04-08T21:13:06;97200.75;;;14.20;54.34
48774;BME280;34576;0.000;0.000;2023-04-08T21:20:07;97208.94;;;14.18;54.66
48774;BME280;34576;0.000;0.000;2023-04-08T21:27:07;97204.19;;;14.20;54.30
48774;BME280;34576;0.000;0.000;2023-04-08T21:34:07;97202.81;;;14.18;54.52
48774;BME280;34576;0.000;0.000;2023-04-08T21:41:08;97196.16;;;14.15;54.42
48774;BME280;34576;0.000;0.000;2023-04-08T21:48:08;97203.53;;;14.13;54.44
48774;BME280;34576;0.000;0.000;2023-04-08T21:55:09;97214.13;;;14.13;54.42
48774;BME280;34576;0.000;0.000;2023-04-08T22:02:10;97209.88;;;14.12;54.82
48774;BME280;34576;0.000;0.000;2023-04-08T22:09:10;97204.03;;;14.10;54.46
48774;BME280;34576;0.000;0.000;2023-04-08T22:16:10;97198.38;;;14.06;54.46
48774;BME280;34576;0.000;0.000;2023-04-08T22:23:11;97205.28;;;14.07;54.50
48774;BME280;34576;0.000;0.000;2023-04-08T22:30:11;97196.78;;;14.05;54.47
48774;BME280;34576;0.000;0.000;2023-04-08T22:37:11;97197.81;;;14.04;54.74
48774;BME280;34576;0.000;0.000;2023-04-08T22:44:12;97201.03;;;14.06;54.84
48774;BME280;34576;0.000;0.000;2023-04-08T22:51:12;97201.50;;;14.03;54.44
48774;BME280;34576;0.000;0.000;2023-04-08T22:58:12;97193.56;;;14.03;54.94
48774;BME280;34576;0.000;0.000;2023-04-08T23:05:13;97187.50;;;14.03;54.86
48774;BME280;34576;0.000;0.000;2023-04-08T23:12:13;97191.16;;;14.02;54.67
48774;BME280;34576;0.000;0.000;2023-04-08T23:19:13;97195.91;;;14.00;54.54
48774;BME280;34576;0.000;0.000;2023-04-08T23:26:17;97190.63;;;14.00;54.50
48774;BME280;34576;0.000;0.000;2023-04-08T23:33:18;97194.75;;;13.95;54.51
48774;BME280;34576;0.000;0.000;2023-04-08T23:40:18;97200.94;;;14.01;54.45
48774;BME280;34576;0.000;0.000;2023-04-08T23:47:19;97195.91;;;14.00;54.41
48774;BME280;34576;0.000;0.000;2023-04-08T23:54:19;97190.25;;;13.96;54.52
